Time;durP1;ratioP1;P1;durP2;ratioP2;P2;SDS_P1;SDS_P2;PMS_P1;PMS_P2;Temp;Humidity;BMP_temperature;BMP_pressure;BME280_temperature;BME280_humidity;BME280_pressure;Samples;Min_cycle;Max_cycle;Signal;HPM_P1;HPM_P2
2022/06/19 00:01:16;;;;;;;4.60;4.40;;;;;;;-143.83;100.00;62900.06;5033417;28;20042;-61
2022/06/19 00:03:50;;;;;;;4.70;4.50;;;;;;;-143.83;100.00;62900.06;5032963;28;20022;-61
2022/06/19 00:06:16;;;;;;;4.80;4.60;;;;;;;-143.83;100.00;62900.06;5022402;28;20029;-61
2022/06/19 00:08:43;;;;;;;4.80;4.60;;;;;;;-143.83;100.00;62900.06;5028947;28;20035;-61
2022/06/19 00:11:11;;;;;;;4.60;4.40;;;;;;;-143.83;100.00;62900.06;5032427;28;20028;-61
2022/06/19 00:13:37;;;;;;;4.65;4.45;;;;;;;-143.83;100.00;62900.06;5032660;28;20025;-61
2022/06/19 00:16:02;;;;;;;4.70;4.50;;;;;;;-143.83;100.00;62900.06;5032946;28;20033;-61
2022/06/19 00:18:28;;;;;;;4.53;4.32;;;;;;;-143.83;100.00;62900.06;5040752;28;20396;-61
2022/06/19 00:20:54;;;;;;;4.60;4.40;;;;;;;-143.83;100.00;62900.06;5032891;28;20033;-61
2022/06/19 00:23:19;;;;;;;4.70;4.50;;;;;;;-143.83;100.00;62900.06;5030742;28;20025;-61
2022/06/19 00:25:45;;;;;;;4.60;4.40;;;;;;;-143.83;100.00;62900.06;5023229;28;20076;-60
2022/06/19 00:28:11;;;;;;;4.60;4.40;;;;;;;-143.83;100.00;62900.06;5032481;28;20033;-61
2022/06/19 00:30:37;;;;;;;4.60;4.40;;;;;;;-143.83;100.00;62900.06;5032523;28;20563;-60
2022/06/19 00:33:03;;;;;;;4.57;4.38;;;;;;;-143.83;100.00;62900.06;5032195;28;20037;-60
2022/06/19 00:35:29;;;;;;;4.68;4.47;;;;;;;-143.83;100.00;62900.06;5032891;28;20557;-60
2022/06/19 00:37:55;;;;;;;4.60;4.40;;;;;;;-143.83;100.00;62900.06;5027268;28;20060;-61
2022/06/19 00:40:22;;;;;;;4.60;4.40;;;;;;;-143.83;100.00;62900.06;5040104;28;20036;-60
2022/06/19 00:42:48;;;;;;;4.60;4.40;;;;;;;-143.83;100.00;62900.06;5025712;28;20029;-62
2022/06/19 00:45:37;;;;;;;4.55;4.35;;;;;;;-143.83;100.00;62900.06;5031149;28;20075;-59
2022/06/19 00:48:09;;;;;;;4.57;4.38;;;;;;;-143.83;100.00;62900.06;5031942;28;20079;-61
2022/06/19 00:50:36;;;;;;;4.38;4.18;;;;;;;-143.83;100.00;62900.06;5032035;28;20108;-61
2022/06/19 00:53:08;;;;;;;4.60;4.40;;;;;;;-143.83;100.00;62900.06;5031939;28;20083;-61
2022/06/19 00:55:38;;;;;;;4.40;4.20;;;;;;;-143.83;100.00;62900.06;5032413;28;20424;-61
2022/06/19 00:58:09;;;;;;;4.45;4.25;;;;;;;-143.83;100.00;62900.06;5024129;28;20397;-61
2022/06/19 01:00:36;;;;;;;4.55;4.35;;;;;;;-143.83;100.00;62900.06;5031412;28;20037;-61
2022/06/19 01:03:09;;;;;;;4.53;4.32;;;;;;;-143.83;100.00;62900.06;5031841;28;20028;-62
2022/06/19 01:05:38;;;;;;;4.45;4.25;;;;;;;-143.83;100.00;62900.06;5028025;28;20018;-61
2022/06/19 01:08:04;;;;;;;4.60;4.40;;;;;;;-143.83;100.00;62900.06;5025257;28;20026;-60
2022/06/19 01:10:37;;;;;;;4.60;4.40;;;;;;;-143.83;100.00;62900.06;5040987;28;20036;-60
2022/06/19 01:13:02;;;;;;;4.30;4.15;;;;;;;-143.83;100.00;62900.06;5025559;28;20450;-61
2022/06/19 01:15:28;;;;;;;4.60;4.40;;;;;;;-143.83;100.00;62900.06;5017906;28;20025;-60
2022/06/19 01:18:02;;;;;;;4.60;4.40;;;;;;;-143.83;100.00;62900.06;5025164;28;20128;-60
2022/06/19 01:20:29;;;;;;;4.60;4.40;;;;;;;-143.83;100.00;62900.06;5031654;28;20485;-60
2022/06/19 01:23:21;;;;;;;4.40;4.20;;;;;;;-143.83;100.00;62900.06;5031896;28;20021;-60
2022/06/19 01:25:49;;;;;;;4.53;4.32;;;;;;;-143.83;100.00;62900.06;5032201;28;20025;-62
2022/06/19 01:31:08;;;;;;;4.50;4.30;;;;;;;-143.83;100.00;62900.06;5024750;28;20032;-61
2022/06/19 01:33:48;;;;;;;4.60;4.40;;;;;;;-143.83;100.00;62900.06;5030385;28;20511;-60
2022/06/19 01:36:16;;;;;;;4.63;4.43;;;;;;;-143.83;100.00;62900.06;5031801;28;20436;-60
2022/06/19 01:38:48;;;;;;;4.50;4.30;;;;;;;-143.83;100.00;62900.06;5031473;28;20032;-59
2022/06/19 01:41:19;;;;;;;4.60;4.40;;;;;;;-143.83;100.00;62900.06;5031487;28;20033;-60
2022/06/19 01:43:46;;;;;;;4.47;4.28;;;;;;;-143.83;100.00;62900.06;5026590;28;20095;-60
2022/06/19 01:46:15;;;;;;;4.50;4.30;;;;;;;-143.83;100.00;62900.06;5031453;28;20191;-60
2022/06/19 01:48:41;;;;;;;4.43;4.22;;;;;;;-143.83;100.00;62900.06;5028810;28;20046;-60
2022/06/19 01:51:08;;;;;;;4.40;4.20;;;;;;;-143.83;100.00;62900.06;5026786;28;20116;-60
2022/06/19 01:53:50;;;;;;;4.45;4.25;;;;;;;-143.83;100.00;62900.06;5031339;28;20025;-60
2022/06/19 01:56:16;;;;;;;4.40;4.20;;;;;;;-143.83;100.00;62900.06;5033500;28;20025;-60
2022/06/19 01:58:46;;;;;;;4.38;4.18;;;;;;;-143.83;100.00;62900.06;5035455;28;20033;-60
2022/06/19 02:01:12;;;;;;;4.40;4.20;;;;;;;-143.83;100.00;62900.06;5035799;28;20396;-61
2022/06/19 02:03:44;;;;;;;4.50;4.30;;;;;;;-143.83;100.00;62900.06;5035223;28;20513;-61
2022/06/19 02:06:14;;;;;;;4.45;4.25;;;;;;;-143.83;100.00;62900.06;5020693;28;20029;-62
2022/06/19 02:08:40;;;;;;;4.50;4.30;;;;;;;-143.83;100.00;62900.06;5034319;28;20037;-61
2022/06/19 02:11:07;;;;;;;4.60;4.40;;;;;;;-143.83;100.00;62900.06;5034056;28;20100;-61
2022/06/19 02:13:34;;;;;;;4.38;4.18;;;;;;;-143.83;100.00;62900.06;5035349;28;20064;-61
2022/06/19 02:16:04;;;;;;;4.40;4.20;;;;;;;-143.83;100.00;62900.06;5021969;28;20029;-59
2022/06/19 02:18:35;;;;;;;4.40;4.20;;;;;;;-143.83;100.00;62900.06;5043227;28;20477;-61
2022/06/19 02:21:01;;;;;;;4.60;4.40;;;;;;;-143.83;100.00;62900.06;5028654;28;20025;-61
2022/06/19 02:23:36;;;;;;;4.50;4.30;;;;;;;-143.83;100.00;62900.06;5022113;28;20032;-60
2022/06/19 02:26:03;;;;;;;;;;;;;;;-143.83;100.00;62900.06;5027823;28;20457;-59
2022/06/19 02:28:30;;;;;;;4.43;4.22;;;;;;;-143.83;100.00;62900.06;5034799;28;19913;-60
2022/06/19 02:30:56;;;;;;;4.40;4.20;;;;;;;-143.83;100.00;62900.06;5029194;28;20025;-60
2022/06/19 02:33:26;;;;;;;4.50;4.30;;;;;;;-143.83;100.00;62900.06;5035957;28;20021;-60
2022/06/19 02:35:52;;;;;;;4.53;4.32;;;;;;;-143.83;100.00;62900.06;5033976;28;20481;-60
2022/06/19 02:38:20;;;;;;;4.50;4.30;;;;;;;-143.83;100.00;62900.06;5023076;28;20073;-60
2022/06/19 02:41:12;;;;;;;4.53;4.32;;;;;;;-143.83;100.00;62900.06;5030894;28;20025;-60
2022/06/19 02:43:37;;;;;;;4.22;4.10;;;;;;;-143.83;100.00;62900.06;5034225;28;20056;-60
2022/06/19 02:46:06;;;;;;;4.70;4.50;;;;;;;-143.83;100.00;62900.06;5030656;28;20397;-60
2022/06/19 02:48:32;;;;;;;4.60;4.40;;;;;;;-143.83;100.00;62900.06;5034294;28;20053;-60
2022/06/19 02:51:00;;;;;;;4.88;4.68;;;;;;;-143.83;100.00;62900.06;5040623;28;20037;-60
2022/06/19 02:53:27;;;;;;;4.93;4.72;;;;;;;-143.83;100.00;62900.06;5034621;28;20115;-61
2022/06/19 02:55:54;;;;;;;5.00;4.80;;;;;;;-143.83;100.00;62900.06;5034428;28;20068;-61
2022/06/19 02:58:20;;;;;;;5.28;5.07;;;;;;;-143.83;100.00;62900.06;5026756;28;20030;-60
2022/06/19 03:00:47;;;;;;;5.30;5.10;;;;;;;-143.83;100.00;62900.06;5028879;28;20026;-60
2022/06/19 03:03:29;;;;;;;5.10;4.90;;;;;;;-143.83;100.00;62900.06;5034109;28;20029;-60
2022/06/19 03:05:54;;;;;;;5.38;5.18;;;;;;;-143.83;100.00;62900.06;5034075;28;20049;-60
2022/06/19 03:08:20;;;;;;;5.40;5.20;;;;;;;-143.83;100.00;62900.06;5032539;28;20056;-60
2022/06/19 03:10:45;;;;;;;5.43;5.22;;;;;;;-143.83;100.00;62900.06;5032066;28;20071;-60
2022/06/19 03:13:11;;;;;;;5.43;5.22;;;;;;;-143.83;100.00;62900.06;5021006;28;20021;-61
2022/06/19 03:15:36;;;;;;;5.50;5.30;;;;;;;-143.83;100.00;62900.06;5031080;28;20021;-61
2022/06/19 03:18:02;;;;;;;5.43;5.22;;;;;;;-143.83;100.00;62900.06;5033967;28;20357;-60
2022/06/19 03:20:28;;;;;;;5.80;5.60;;;;;;;-143.83;100.00;62900.06;5033892;28;20032;-60
2022/06/19 03:22:54;;;;;;;5.50;5.30;;;;;;;-143.83;100.00;62900.06;5033572;28;20499;-60
2022/06/19 03:25:21;;;;;;;5.80;5.60;;;;;;;-143.83;100.00;62900.06;5033913;28;20021;-61
2022/06/19 03:27:48;;;;;;;5.70;5.50;;;;;;;-143.83;100.00;62900.06;5025353;28;20029;-60
2022/06/19 03:30:16;;;;;;;5.55;5.35;;;;;;;-143.83;100.00;62900.06;5031446;28;20129;-61
2022/06/19 03:32:42;;;;;;;5.70;5.50;;;;;;;-143.83;100.00;62900.06;5023351;28;20482;-60
2022/06/19 03:35:08;;;;;;;5.70;5.50;;;;;;;-143.83;100.00;62900.06;5031381;28;20040;-61
2022/06/19 03:37:34;;;;;;;5.60;5.40;;;;;;;-143.83;100.00;62900.06;5030538;28;20025;-61
2022/06/19 03:40:00;;;;;;;5.75;5.55;;;;;;;-143.83;100.00;62900.06;5032578;28;20022;-61
2022/06/19 03:42:26;;;;;;;5.63;5.43;;;;;;;-143.83;100.00;62900.06;5025195;28;20034;-60
2022/06/19 03:44:51;;;;;;;5.80;5.60;;;;;;;-143.83;100.00;62900.06;5031925;28;20433;-60
2022/06/19 03:47:22;;;;;;;5.80;5.60;;;;;;;-143.83;100.00;62900.06;5018552;28;20030;-59
2022/06/19 03:49:48;;;;;;;5.70;5.50;;;;;;;-143.83;100.00;62900.06;5026386;28;20037;-61
2022/06/19 03:52:14;;;;;;;6.10;5.90;;;;;;;-143.83;100.00;62900.06;5031522;28;20083;-60
2022/06/19 03:54:40;;;;;;;5.80;5.60;;;;;;;-143.83;100.00;62900.06;5033281;28;20075;-60
2022/06/19 03:57:05;;;;;;;5.80;5.60;;;;;;;-143.83;100.00;62900.06;5033148;28;20071;-61
2022/06/19 03:59:31;;;;;;;5.88;5.68;;;;;;;-143.83;100.00;62900.06;5044092;28;20025;-61
2022/06/19 04:01:57;;;;;;;5.97;5.78;;;;;;;-143.83;100.00;62900.06;5033251;28;20469;-61
2022/06/19 04:04:23;;;;;;;6.18;5.97;;;;;;;-143.83;100.00;62900.06;5026460;28;20454;-61
2022/06/19 04:06:48;;;;;;;6.00;5.80;;;;;;;-143.83;100.00;62900.06;5023967;28;20021;-61
2022/06/19 04:09:17;;;;;;;5.82;5.63;;;;;;;-143.83;100.00;62900.06;5026259;28;20014;-60
2022/06/19 04:11:44;;;;;;;5.90;5.70;;;;;;;-143.83;100.00;62900.06;5032261;28;20029;-60
2022/06/19 04:14:13;;;;;;;6.10;5.90;;;;;;;-143.83;100.00;62900.06;5032383;28;20669;-62
2022/06/19 04:16:39;;;;;;;5.97;5.78;;;;;;;-143.83;100.00;62900.06;5043337;28;20412;-61
2022/06/19 04:19:07;;;;;;;6.03;5.82;;;;;;;-143.83;100.00;62900.06;5032406;28;20032;-60
2022/06/19 04:21:35;;;;;;;6.18;5.97;;;;;;;-143.83;100.00;62900.06;5027432;28;20080;-61
2022/06/19 04:24:05;;;;;;;6.30;6.03;;;;;;;-143.83;100.00;62900.06;5032007;28;20033;-61
2022/06/19 04:26:35;;;;;;;6.35;6.07;;;;;;;-143.83;100.00;62900.06;5032473;28;20485;-61
2022/06/19 04:29:03;;;;;;;6.00;5.80;;;;;;;-143.83;100.00;62900.06;5032519;28;20060;-61
2022/06/19 04:31:29;;;;;;;5.97;5.78;;;;;;;-143.83;100.00;62900.06;5032115;28;20101;-61
2022/06/19 04:33:55;;;;;;;6.03;5.82;;;;;;;-143.83;100.00;62900.06;5033057;28;20032;-61
2022/06/19 04:36:24;;;;;;;6.38;6.07;;;;;;;-143.83;100.00;62900.06;5028851;28;20034;-60
2022/06/19 04:38:51;;;;;;;6.15;5.95;;;;;;;-143.83;100.00;62900.06;5028586;28;20515;-61
2022/06/19 04:41:26;;;;;;;6.07;5.88;;;;;;;-143.83;100.00;62900.06;5027477;28;20036;-61
2022/06/19 04:43:53;;;;;;;6.03;5.82;;;;;;;-143.83;100.00;62900.06;5032447;28;20385;-61
2022/06/19 04:46:19;;;;;;;6.20;6.00;;;;;;;-143.83;100.00;62900.06;5032023;28;20462;-60
2022/06/19 04:48:46;;;;;;;6.10;5.90;;;;;;;-143.83;100.00;62900.06;5031949;28;20049;-61
2022/06/19 04:51:12;;;;;;;6.10;5.90;;;;;;;-143.83;100.00;62900.06;5031809;28;20041;-61
2022/06/19 04:53:39;;;;;;;6.00;5.80;;;;;;;-143.83;100.00;62900.06;5026505;28;20065;-61
2022/06/19 04:56:07;;;;;;;6.20;6.00;;;;;;;-143.83;100.00;62900.06;5024238;28;20026;-61
2022/06/19 04:58:33;;;;;;;6.13;5.93;;;;;;;-143.83;100.00;62900.06;5028472;28;20064;-61
2022/06/19 05:01:01;;;;;;;6.18;5.97;;;;;;;-143.83;100.00;62900.06;5031850;28;20107;-61
2022/06/19 05:03:28;;;;;;;6.15;5.85;;;;;;;-143.83;100.00;62900.06;5031952;28;20022;-61
2022/06/19 05:05:54;;;;;;;6.10;5.90;;;;;;;-143.83;100.00;62900.06;5031933;28;20377;-61
2022/06/19 05:08:20;;;;;;;6.15;5.95;;;;;;;-143.83;100.00;62900.06;5036279;28;20024;-62
2022/06/19 05:10:46;;;;;;;6.00;5.80;;;;;;;-143.83;100.00;62900.06;5026818;28;20334;-61
2022/06/19 05:13:19;;;;;;;6.10;5.90;;;;;;;-143.83;100.00;62900.06;5030193;28;20032;-61
2022/06/19 05:15:45;;;;;;;6.25;6.05;;;;;;;-143.83;100.00;62900.06;5026513;28;20033;-61
2022/06/19 05:18:11;;;;;;;6.18;5.97;;;;;;;-143.83;100.00;62900.06;5025642;28;20067;-62
2022/06/19 05:20:37;;;;;;;6.35;6.07;;;;;;;-143.83;100.00;62900.06;5030925;28;20030;-61
2022/06/19 05:23:04;;;;;;;6.25;6.00;;;;;;;-143.83;100.00;62900.06;5032080;28;20061;-60
2022/06/19 05:25:30;;;;;;;6.40;6.10;;;;;;;-143.83;100.00;62900.06;5031632;28;20477;-61
2022/06/19 05:27:55;;;;;;;6.10;5.90;;;;;;;-143.83;100.00;62900.06;5022987;28;20033;-62
2022/06/19 05:30:21;;;;;;;6.47;6.18;;;;;;;-143.83;100.00;62900.06;5025010;28;20080;-63
2022/06/19 05:32:46;;;;;;;6.03;5.82;;;;;;;-143.83;100.00;62900.06;5032366;28;20674;-61
2022/06/19 05:35:12;;;;;;;6.40;6.13;;;;;;;-143.83;100.00;62900.06;5035517;28;20455;-60
2022/06/19 05:37:37;;;;;;;6.50;6.20;;;;;;;-143.83;100.00;62900.06;5035285;28;20030;-61
2022/06/19 05:40:05;;;;;;;5.93;5.72;;;;;;;-143.83;100.00;62900.06;5035533;28;20029;-61
2022/06/19 05:42:30;;;;;;;5.97;5.78;;;;;;;-143.83;100.00;62900.06;5033258;28;20156;-62
2022/06/19 05:44:56;;;;;;;6.38;6.10;;;;;;;-143.83;100.00;62900.06;5035011;28;20113;-61
2022/06/19 05:47:21;;;;;;;6.55;6.25;;;;;;;-143.83;100.00;62900.06;5035164;28;20199;-61
2022/06/19 05:49:47;;;;;;;6.57;6.28;;;;;;;-143.83;100.00;62900.06;5021741;28;20160;-61
2022/06/19 05:52:22;;;;;;;6.20;6.00;;;;;;;-143.83;100.00;62900.06;5029972;28;20425;-61
2022/06/19 05:54:48;;;;;;;6.40;6.10;;;;;;;-143.83;100.00;62900.06;5041381;28;20079;-61
2022/06/19 05:57:14;;;;;;;6.20;6.00;;;;;;;-143.83;100.00;62900.06;5029632;28;20412;-61
2022/06/19 05:59:40;;;;;;;6.40;6.10;;;;;;;-143.83;100.00;62900.06;5032606;28;20099;-61
2022/06/19 06:02:06;;;;;;;6.40;6.10;;;;;;;-143.83;100.00;62900.06;5025961;28;20029;-62
2022/06/19 06:04:32;;;;;;;6.70;6.40;;;;;;;-143.83;100.00;62900.06;5031242;28;20029;-61
2022/06/19 06:06:58;;;;;;;6.40;6.10;;;;;;;-143.83;100.00;62900.06;5023666;28;20543;-62
2022/06/19 06:09:24;;;;;;;6.40;6.10;;;;;;;-143.83;100.00;62900.06;5031139;28;20060;-63
2022/06/19 06:11:49;;;;;;;6.50;6.20;;;;;;;-143.83;100.00;62900.06;5025150;28;20029;-62
2022/06/19 06:14:15;;;;;;;6.50;6.20;;;;;;;-143.83;100.00;62900.06;5031757;28;20029;-63
2022/06/19 06:16:40;;;;;;;6.20;6.00;;;;;;;-143.83;100.00;62900.06;5025427;28;20041;-61
2022/06/19 06:19:06;;;;;;;6.43;6.13;;;;;;;-143.83;100.00;62900.06;5034348;28;20514;-62
2022/06/19 06:21:31;;;;;;;6.50;6.20;;;;;;;-143.83;100.00;62900.06;5030963;28;20029;-63
2022/06/19 06:23:57;;;;;;;6.15;5.95;;;;;;;-143.83;100.00;62900.06;5032085;28;20051;-63
2022/06/19 06:26:29;;;;;;;6.22;6.03;;;;;;;-143.83;100.00;62900.06;5029159;28;20025;-61
2022/06/19 06:28:57;;;;;;;6.50;6.20;;;;;;;-143.83;100.00;62900.06;5039907;28;20037;-62
2022/06/19 06:31:23;;;;;;;6.50;6.20;;;;;;;-143.83;100.00;62900.06;5033263;28;20037;-62
2022/06/19 06:33:49;;;;;;;6.20;6.00;;;;;;;-143.83;100.00;62900.06;5033593;28;20086;-61
2022/06/19 06:36:15;;;;;;;6.32;6.07;;;;;;;-143.83;100.00;62900.06;5031823;28;20033;-62
2022/06/19 06:38:41;;;;;;;6.35;6.07;;;;;;;-143.83;100.00;62900.06;5034770;28;20022;-62
2022/06/19 06:41:10;;;;;;;6.60;6.30;;;;;;;-143.83;100.00;62900.06;5040199;28;20032;-63
2022/06/19 06:43:39;;;;;;;6.47;6.18;;;;;;;-143.83;100.00;62900.06;5041717;28;20025;-61
2022/06/19 06:46:10;;;;;;;6.70;6.40;;;;;;;-143.83;100.00;62900.06;5040222;28;20112;-63
2022/06/19 06:48:36;;;;;;;6.40;6.10;;;;;;;-143.83;100.00;62900.06;5027860;28;20049;-61
2022/06/19 06:51:13;;;;;;;6.50;6.20;;;;;;;-143.83;100.00;62900.06;5028555;28;20043;-62
2022/06/19 06:53:39;;;;;;;6.70;6.40;;;;;;;-143.83;100.00;62900.06;5032970;28;20136;-61
2022/06/19 06:56:05;;;;;;;6.60;6.30;;;;;;;-143.83;100.00;62900.06;5032397;28;20124;-61
2022/06/19 06:58:31;;;;;;;6.47;6.18;;;;;;;-143.83;100.00;62900.06;5028506;28;20381;-61
2022/06/19 07:00:58;;;;;;;6.10;5.90;;;;;;;-143.83;100.00;62900.06;5029631;28;20118;-62
2022/06/19 07:03:23;;;;;;;6.00;5.80;;;;;;;-143.83;100.00;62900.06;5021362;28;20033;-60
2022/06/19 07:05:48;;;;;;;6.10;5.90;;;;;;;-143.83;100.00;62900.06;5030569;28;20052;-61
2022/06/19 07:08:14;;;;;;;6.50;6.20;;;;;;;-143.83;100.00;62900.06;5022552;28;20040;-62
2022/06/19 07:10:39;;;;;;;6.28;6.03;;;;;;;-143.83;100.00;62900.06;5029129;28;20049;-61
2022/06/19 07:13:05;;;;;;;6.35;6.05;;;;;;;-143.83;100.00;62900.06;5022952;28;20142;-61
2022/06/19 07:15:32;;;;;;;6.50;6.20;;;;;;;-143.83;100.00;62900.06;5025903;28;20500;-61
2022/06/19 07:17:58;;;;;;;6.07;5.88;;;;;;;-143.83;100.00;62900.06;5027533;28;20037;-61
2022/06/19 07:20:24;;;;;;;6.35;6.07;;;;;;;-143.83;100.00;62900.06;5028292;28;20444;-62
2022/06/19 07:22:49;;;;;;;5.97;5.78;;;;;;;-143.83;100.00;62900.06;5029405;28;20104;-62
2022/06/19 07:25:19;;;;;;;6.10;5.90;;;;;;;-143.83;100.00;62900.06;5036522;28;20029;-62
2022/06/19 07:27:46;;;;;;;6.30;6.00;;;;;;;-143.83;100.00;62900.06;5018066;28;20029;-60
2022/06/19 07:30:16;;;;;;;6.10;5.90;;;;;;;-143.83;100.00;62900.06;5021456;28;20021;-62
2022/06/19 07:32:42;;;;;;;6.45;6.15;;;;;;;-143.83;100.00;62900.06;5025155;28;20026;-61
2022/06/19 07:35:08;;;;;;;6.40;6.10;;;;;;;-143.83;100.00;62900.06;5032761;28;20029;-61
2022/06/19 07:37:33;;;;;;;6.20;6.00;;;;;;;-143.83;100.00;62900.06;5028489;28;20025;-63
2022/06/19 07:39:59;;;;;;;6.35;6.05;;;;;;;-143.83;100.00;62900.06;5033687;28;20436;-61
2022/06/19 07:42:24;;;;;;;6.40;6.10;;;;;;;-143.83;100.00;62900.06;5032158;28;20037;-62
2022/06/19 07:44:50;;;;;;;6.05;5.85;;;;;;;-143.83;100.00;62900.06;5032596;28;20032;-62
2022/06/19 07:50:13;;;;;;;5.78;5.57;;;;;;;-143.83;100.00;62900.06;5022693;28;20053;-63
2022/06/19 07:52:45;;;;;;;6.00;5.80;;;;;;;-143.83;100.00;62900.06;5033318;28;20124;-62
2022/06/19 07:55:13;;;;;;;5.78;5.57;;;;;;;-143.83;100.00;62900.06;5034654;28;20120;-62
2022/06/19 07:57:39;;;;;;;5.80;5.60;;;;;;;-143.83;100.00;62900.06;5037768;28;20413;-60
2022/06/19 08:00:07;;;;;;;5.55;5.35;;;;;;;-143.83;100.00;62900.06;5022307;28;20116;-62
2022/06/19 08:02:32;;;;;;;5.80;5.60;;;;;;;-143.83;100.00;62900.06;5028649;28;20045;-61
2022/06/19 08:04:58;;;;;;;5.75;5.55;;;;;;;-143.83;100.00;62900.06;5038874;28;20039;-61
2022/06/19 08:07:24;;;;;;;5.70;5.50;;;;;;;-143.83;100.00;62900.06;5041374;28;20041;-62
2022/06/19 08:09:50;;;;;;;5.60;5.40;;;;;;;-143.83;100.00;62900.06;5034999;28;20388;-61
2022/06/19 08:12:15;;;;;;;5.68;5.47;;;;;;;-143.83;100.00;62900.06;5034945;28;20025;-61
2022/06/19 08:14:41;;;;;;;5.70;5.50;;;;;;;-143.83;100.00;62900.06;5036326;28;20033;-61
2022/06/19 08:17:07;;;;;;;5.53;5.32;;;;;;;-143.83;100.00;62900.06;5029584;28;20033;-63
2022/06/19 08:19:32;;;;;;;5.43;5.22;;;;;;;-143.83;100.00;62900.06;5029912;28;20033;-62
2022/06/19 08:21:58;;;;;;;5.70;5.50;;;;;;;-143.83;100.00;62900.06;5028053;28;20037;-62
2022/06/19 08:24:23;;;;;;;5.68;5.47;;;;;;;-143.83;100.00;62900.06;5033965;28;20112;-61
2022/06/19 08:26:55;;;;;;;5.88;5.68;;;;;;;-143.83;100.00;62900.06;5028162;28;20045;-62
2022/06/19 08:29:21;;;;;;;5.63;5.43;;;;;;;-143.83;100.00;62900.06;5031131;28;20025;-62
2022/06/19 08:31:47;;;;;;;5.60;5.40;;;;;;;-143.83;100.00;62900.06;5020631;28;20029;-61
2022/06/19 08:34:12;;;;;;;5.60;5.40;;;;;;;-143.83;100.00;62900.06;5030847;28;20025;-62
2022/06/19 08:36:38;;;;;;;5.80;5.60;;;;;;;-143.83;100.00;62900.06;5028561;28;20598;-62
2022/06/19 08:39:08;;;;;;;5.60;5.40;;;;;;;-143.83;100.00;62900.06;5024528;28;20575;-63
2022/06/19 08:41:57;;;;;;;5.60;5.40;;;;;;;-143.83;100.00;62900.06;5033223;28;20031;-62
2022/06/19 08:44:29;;;;;;;5.50;5.30;;;;;;;-143.83;100.00;62900.06;5029129;28;20032;-61
2022/06/19 08:47:25;;;;;;;5.50;5.30;;;;;;;-143.83;100.00;62900.06;5033751;28;20060;-62
2022/06/19 08:50:06;;;;;;;5.60;5.40;;;;;;;-143.83;100.00;62900.06;5023526;28;20051;-62
2022/06/19 08:53:05;;;;;;;5.53;5.32;;;;;;;-143.83;100.00;62900.06;5028113;28;20493;-60
2022/06/19 08:55:36;;;;;;;5.53;5.32;;;;;;;-143.83;100.00;62900.06;5020283;28;20091;-62
2022/06/19 08:58:40;;;;;;;5.45;5.25;;;;;;;-143.83;100.00;62900.06;5028436;28;20051;-61
2022/06/19 09:01:35;;;;;;;5.45;5.25;;;;;;;-143.83;100.00;62900.06;5026125;28;20052;-61
2022/06/19 09:07:06;;;;;;;5.47;5.28;;;;;;;-143.83;100.00;62900.06;5027182;28;20055;-61
2022/06/19 09:09:57;;;;;;;5.47;5.28;;;;;;;-143.83;100.00;62900.06;5025968;28;20057;-60
2022/06/19 09:12:43;;;;;;;5.45;5.25;;;;;;;-143.83;100.00;62900.06;5021897;28;20021;-62
2022/06/19 09:15:15;;;;;;;5.40;5.20;;;;;;;-143.83;100.00;62900.06;5028335;28;20033;-59
2022/06/19 09:18:31;;;;;;;5.43;5.22;;;;;;;-143.83;100.00;62900.06;5028162;28;20473;-60
2022/06/19 09:21:02;;;;;;;5.32;5.13;;;;;;;-143.83;100.00;62900.06;5018003;28;20434;-60
2022/06/19 09:23:52;;;;;;;5.40;5.20;;;;;;;-143.83;100.00;62900.06;5030992;28;20128;-62
2022/06/19 09:26:25;;;;;;;5.43;5.22;;;;;;;-143.83;100.00;62900.06;5031748;28;20021;-62
2022/06/19 09:29:14;;;;;;;5.50;5.30;;;;;;;-143.83;100.00;62900.06;5025529;28;20035;-61
2022/06/19 09:32:05;;;;;;;5.40;5.20;;;;;;;-143.83;100.00;62900.06;5028385;28;20130;-61
2022/06/19 09:34:44;;;;;;;5.35;5.15;;;;;;;-143.83;100.00;62900.06;5027921;28;20059;-61
2022/06/19 09:37:15;;;;;;;5.40;5.20;;;;;;;-143.83;100.00;62900.06;5014968;28;20790;-61
2022/06/19 09:39:50;;;;;;;5.28;5.07;;;;;;;-143.83;100.00;62900.06;5025390;28;20040;-61
2022/06/19 09:42:27;;;;;;;5.40;5.20;;;;;;;-143.83;100.00;62900.06;5023212;28;20353;-61
2022/06/19 09:45:01;;;;;;;5.25;5.05;;;;;;;-143.83;100.00;62900.06;5013788;28;20076;-61
2022/06/19 09:47:40;;;;;;;5.47;5.28;;;;;;;-143.83;100.00;62900.06;5024387;28;20041;-62
2022/06/19 09:50:35;;;;;;;5.40;5.20;;;;;;;-143.83;100.00;62900.06;5025862;28;20058;-61
2022/06/19 09:53:12;;;;;;;5.20;5.00;;;;;;;-143.83;100.00;62900.06;5023583;28;20534;-61
2022/06/19 09:55:44;;;;;;;5.30;5.10;;;;;;;-143.83;100.00;62900.06;5026439;28;20683;-62
2022/06/19 09:58:23;;;;;;;5.30;5.10;;;;;;;-143.83;100.00;62900.06;5021827;28;20029;-61
2022/06/19 10:00:52;;;;;;;5.28;5.07;;;;;;;-143.83;100.00;62900.06;5012158;28;20030;-61
2022/06/19 10:03:40;;;;;;;5.10;4.90;;;;;;;-143.83;100.00;62900.06;5025980;28;20540;-61
2022/06/19 10:06:20;;;;;;;5.30;5.10;;;;;;;-143.83;100.00;62900.06;5021295;28;20139;-62
2022/06/19 10:08:51;;;;;;;5.50;5.30;;;;;;;-143.83;100.00;62900.06;5021391;28;20102;-61
2022/06/19 10:11:22;;;;;;;5.20;5.00;;;;;;;-143.83;100.00;62900.06;5027401;28;20036;-61
2022/06/19 10:13:50;;;;;;;5.30;5.10;;;;;;;-143.83;100.00;62900.06;5027216;28;20036;-61
2022/06/19 10:16:28;;;;;;;5.30;5.10;;;;;;;-143.83;100.00;62900.06;5020115;28;20029;-61
2022/06/19 10:18:55;;;;;;;5.38;5.18;;;;;;;-143.83;100.00;62900.06;5024437;28;20037;-62
2022/06/19 10:24:48;;;;;;;5.22;5.03;;;;;;;-143.83;100.00;62900.06;5022344;28;20135;-61
2022/06/19 10:27:23;;;;;;;5.40;5.20;;;;;;;-143.83;100.00;62900.06;5024930;28;20502;-62
2022/06/19 10:29:51;;;;;;;5.20;5.00;;;;;;;-143.83;100.00;62900.06;5044556;28;20140;-62
2022/06/19 10:32:39;;;;;;;5.32;5.13;;;;;;;-143.83;100.00;62900.06;5028115;28;20041;-62
2022/06/19 10:35:15;;;;;;;5.38;5.18;;;;;;;-143.83;100.00;62900.06;5027304;28;20079;-62
2022/06/19 10:38:24;;;;;;;5.28;5.07;;;;;;;-143.83;100.00;62900.06;5028582;28;20053;-62
2022/06/19 10:41:03;;;;;;;5.25;5.05;;;;;;;-143.83;100.00;62900.06;5019897;28;20095;-62
2022/06/19 10:43:59;;;;;;;5.28;5.07;;;;;;;-143.83;100.00;62900.06;5027418;28;20033;-61
2022/06/19 10:46:26;;;;;;;5.20;5.00;;;;;;;-143.83;100.00;62900.06;5034333;28;20032;-62
2022/06/19 10:49:04;;;;;;;5.00;4.80;;;;;;;-143.83;100.00;62900.06;5034138;28;20060;-61
2022/06/19 10:52:03;;;;;;;5.30;5.10;;;;;;;-143.83;100.00;62900.06;5014793;28;20057;-62
2022/06/19 10:54:49;;;;;;;5.28;5.07;;;;;;;-143.83;100.00;62900.06;5021335;28;20409;-62
2022/06/19 10:57:29;;;;;;;5.10;4.90;;;;;;;-143.83;100.00;62900.06;5018445;28;20032;-62
2022/06/19 10:59:55;;;;;;;5.30;5.10;;;;;;;-143.83;100.00;62900.06;5027716;28;20053;-62
2022/06/19 11:05:54;;;;;;;5.10;4.90;;;;;;;-143.83;100.00;62900.06;5030153;28;20114;-62
2022/06/19 11:08:25;;;;;;;5.20;5.00;;;;;;;-143.83;100.00;62900.06;5019415;28;20037;-61
2022/06/19 11:10:58;;;;;;;5.20;5.00;;;;;;;-143.83;100.00;62900.06;5021055;28;20029;-62
2022/06/19 11:13:24;;;;;;;5.20;5.00;;;;;;;-143.83;100.00;62900.06;5032829;28;20028;-61
2022/06/19 11:16:02;;;;;;;5.20;5.00;;;;;;;-143.83;100.00;62900.06;5026595;28;20061;-62
2022/06/19 11:18:28;;;;;;;5.30;5.10;;;;;;;-143.83;100.00;62900.06;5037322;28;20029;-62
2022/06/19 11:20:57;;;;;;;5.40;5.20;;;;;;;-143.83;100.00;62900.06;5019156;28;20035;-62
2022/06/19 11:23:48;;;;;;;5.38;5.18;;;;;;;-143.83;100.00;62900.06;5017468;28;20073;-61
2022/06/19 11:26:16;;;;;;;5.30;5.10;;;;;;;-143.83;100.00;62900.06;5023010;28;20449;-62
2022/06/19 11:28:53;;;;;;;5.30;5.10;;;;;;;-143.83;100.00;62900.06;5023527;28;20044;-62
2022/06/19 11:31:37;;;;;;;5.32;5.13;;;;;;;-143.83;100.00;62900.06;5029889;28;20024;-62
2022/06/19 11:34:43;;;;;;;5.10;4.90;;;;;;;-143.83;100.00;62900.06;5021612;28;20037;-62
2022/06/19 11:37:10;;;;;;;5.30;5.10;;;;;;;-143.83;100.00;62900.06;5029591;28;20036;-62
2022/06/19 11:39:40;;;;;;;5.30;5.10;;;;;;;-143.83;100.00;62900.06;5033076;28;20881;-61